11/11 al 19/11: Calor y tormentas en centro y norte

Avatar de Usuario
Ale de Castelar
Mensajes: 28127
Registrado: Sab Mar 03, 2012 12:25 pm
Ubicación: Caballito

11/11 al 19/11: Calor y tormentas en centro y norte

Mensaje por Ale de Castelar » Mié Nov 11, 2015 12:18 am

Arrancamos nuevo seguimiento asi no se hace tan largo en dias.

Circula por internet esta foto, del granizo caido en General Mansilla, Formosa.

Imagen

Avatar de Usuario
Juan José Frías
Mensajes: 382
Registrado: Sab Abr 19, 2014 8:15 pm
Ubicación: 26°31′00″S 61°10′00″O (Pampa del Infierno)-Chaco, Argentina.

Re: 11/11 al 19/11: Calor y tormentas en centro y norte

Mensaje por Juan José Frías » Mié Nov 11, 2015 12:44 am

Ale de Castelar escribió:Arrancamos nuevo seguimiento asi no se hace tan largo en dias.

Circula por internet esta foto, del granizo caido en General Mansilla, Formosa.

Imagen
:o :shock: , los de acá eran de apenas 3 cm :twisted: , que mas se puede pedir !

Avatar de Usuario
Juan José Frías
Mensajes: 382
Registrado: Sab Abr 19, 2014 8:15 pm
Ubicación: 26°31′00″S 61°10′00″O (Pampa del Infierno)-Chaco, Argentina.

Re: 11/11 al 19/11: Calor y tormentas en centro y norte

Mensaje por Juan José Frías » Mié Nov 11, 2015 12:51 am

Noooo!! :twisted: :twisted: Imagen

Avatar de Usuario
Carlitos12
Mensajes: 2350
Registrado: Jue Jul 16, 2015 10:39 pm
Ubicación: Ciudad de Corrientes
Contactar:

Re: 11/11 al 19/11: Calor y tormentas en centro y norte

Mensaje por Carlitos12 » Mié Nov 11, 2015 1:18 am

Hermosa linea se formo.
Acá en Corrientes es impresionante como cantan las ranas, zapos, grillos, quieren mas agua.
Acumulado de la ultima hora la EMA del ICAA es 23,9 mm
.

Avatar de Usuario
Diecha
Mensajes: 14735
Registrado: Jue Ago 25, 2011 9:31 pm
Ubicación: Lomas de Zamora

Re: 11/11 al 19/11: Calor y tormentas en centro y norte

Mensaje por Diecha » Mié Nov 11, 2015 1:32 am

- Formosa 01 hs: SARF 110400Z 18011KT 9999 BKN030 26/24 Q1008
- Corrientes 01 hs: SARC 110400Z 32005KT 2000 +TSRA SCT006 OVC045 FEW050CB 22/22 Q1012
- Resistencia 01 hs: SARE 110400Z 14008KT 8000 -TSRA BKN008 OVC045 FEW056CB 24/23 Q1010
- Córdoba 01 hs: SACO 110400Z 23004KT 9999 -TSRA SCT025 FEW030CB BKN050 16/14 Q1022

Imagen

Imagen
Spoiler
Mostrar
Imagen
Imagen
Imagen

marleygaletfede
Mensajes: 2405
Registrado: Lun Feb 20, 2012 10:13 pm
Ubicación: Santa Teresita, Partido de La Costa, Buenos Aires

Re: 11/11 al 19/11: Calor y tormentas en centro y norte

Mensaje por marleygaletfede » Mié Nov 11, 2015 7:43 am

CHUVA mañana a las 09:00 AM
WRFcolmax12UTCC17.png

Avatar de Usuario
Ale de Castelar
Mensajes: 28127
Registrado: Sab Mar 03, 2012 12:25 pm
Ubicación: Caballito

Re: 11/11 al 19/11: Calor y tormentas en centro y norte

Mensaje por Ale de Castelar » Mié Nov 11, 2015 9:20 am

Recien Mati tiro que hay zonas de Misiones con mas de 300mm acumulados (calculo que en dos dias).
Garupa, Obera, Posadas, L N Alem en problemas.

Avatar de Usuario
Ezequiel15
Mensajes: 12321
Registrado: Lun Ene 23, 2012 4:18 pm
Ubicación: I Casanova
Contactar:

Re: 11/11 al 19/11: Calor y tormentas en centro y norte

Mensaje por Ezequiel15 » Mié Nov 11, 2015 9:57 am

Acumulados entre las 9hs de ayer y las 9hs de hoy:
Pcia Roque Saenz Peña 91 mm
Oberá 80 mm
Corrientes 61 mm
Posadas 52 mm
Resistencia 34 mm
Formosa 25 mm
Iguazú 17 mm
Las Lomitas 0 mm

Avatar de Usuario
Ernest
Mensajes: 12012
Registrado: Vie Jul 17, 2009 10:54 pm
Ubicación: Balvanera, CABA

Re: 11/11 al 19/11: Calor y tormentas en centro y norte

Mensaje por Ernest » Mié Nov 11, 2015 10:22 am

Día azulísimo en Buenos Aires, 23º con el Td en caída libre respecto a ayer (unos 9º contra 20 a las 3 de la tarde de ayer), sin embargo nuevamente se siente algo molesto al sol y pesado. ¿Me estaré convirtiendo en Mateix?
La mínima fue de 17,0.
Did you want to talk about the weather, or were you just making chitchat?

Twitter: @ErnestoMeteo

Avatar de Usuario
Carlitos12
Mensajes: 2350
Registrado: Jue Jul 16, 2015 10:39 pm
Ubicación: Ciudad de Corrientes
Contactar:

Re: 11/11 al 19/11: Calor y tormentas en centro y norte

Mensaje por Carlitos12 » Mié Nov 11, 2015 10:37 am

Ezequiel15 escribió:Acumulados entre las 9hs de ayer y las 9hs de hoy:
Pcia Roque Saenz Peña 91 mm
Oberá 80 mm
Corrientes 61 mm
Posadas 52 mm
Resistencia 34 mm
Formosa 25 mm
Iguazú 17 mm
Las Lomitas 0 mm
Impresionante lo de Sáenz Peña, ahí se formo lo groso (a los campos le viene genial esta lluvia)
Después lo llamativo que en Corrientes haya llovido casi el doble que en Resistencia

Gif de la linea que se formo anoche, de Salta hasta Misiones
Imagen
.

Cerrado